sensor_id;sensor_type;location;lat;lon;timestamp;P1;durP1;ratioP1;P2;durP2;ratioP2
56523;SDS011;42422;47.540;18.712;2023-11-21T00:00:20;3.05;;;1.20;;
56523;SDS011;42422;47.540;18.712;2023-11-21T00:02:46;4.25;;;1.40;;
56523;SDS011;42422;47.540;18.712;2023-11-21T00:05:12;3.72;;;1.40;;
56523;SDS011;42422;47.540;18.712;2023-11-21T00:07:39;2.08;;;1.23;;
56523;SDS011;42422;47.540;18.712;2023-11-21T00:10:05;6.35;;;1.40;;
56523;SDS011;42422;47.540;18.712;2023-11-21T00:12:33;2.17;;;1.40;;
56523;SDS011;42422;47.540;18.712;2023-11-21T00:14:58;4.43;;;1.58;;
56523;SDS011;42422;47.540;18.712;2023-11-21T00:17:24;2.90;;;1.45;;
56523;SDS011;42422;47.540;18.712;2023-11-21T00:19:49;2.33;;;1.35;;
56523;SDS011;42422;47.540;18.712;2023-11-21T00:22:17;2.85;;;1.58;;
56523;SDS011;42422;47.540;18.712;2023-11-21T00:24:42;3.78;;;1.45;;
56523;SDS011;42422;47.540;18.712;2023-11-21T00:27:08;4.95;;;1.70;;
56523;SDS011;42422;47.540;18.712;2023-11-21T00:29:33;2.35;;;1.38;;
56523;SDS011;42422;47.540;18.712;2023-11-21T00:31:58;2.75;;;1.30;;
56523;SDS011;42422;47.540;18.712;2023-11-21T00:34:24;3.83;;;1.33;;
56523;SDS011;42422;47.540;18.712;2023-11-21T00:36:49;3.72;;;1.55;;
56523;SDS011;42422;47.540;18.712;2023-11-21T00:39:14;2.97;;;1.50;;
56523;SDS011;42422;47.540;18.712;2023-11-21T00:41:40;3.30;;;1.45;;
56523;SDS011;42422;47.540;18.712;2023-11-21T00:44:06;3.58;;;1.45;;
56523;SDS011;42422;47.540;18.712;2023-11-21T00:46:32;3.28;;;1.20;;
56523;SDS011;42422;47.540;18.712;2023-11-21T00:48:57;2.70;;;1.40;;
56523;SDS011;42422;47.540;18.712;2023-11-21T00:51:22;3.03;;;1.60;;
56523;SDS011;42422;47.540;18.712;2023-11-21T00:53:48;4.97;;;2.15;;
56523;SDS011;42422;47.540;18.712;2023-11-21T00:56:13;3.10;;;1.70;;
56523;SDS011;42422;47.540;18.712;2023-11-21T00:58:39;2.85;;;1.50;;
56523;SDS011;42422;47.540;18.712;2023-11-21T01:01:11;2.40;;;1.30;;
56523;SDS011;42422;47.540;18.712;2023-11-21T01:03:36;2.92;;;1.40;;
56523;SDS011;42422;47.540;18.712;2023-11-21T01:06:02;3.20;;;1.30;;
56523;SDS011;42422;47.540;18.712;2023-11-21T01:08:27;2.95;;;1.60;;
56523;SDS011;42422;47.540;18.712;2023-11-21T01:10:53;5.22;;;1.55;;
56523;SDS011;42422;47.540;18.712;2023-11-21T01:13:19;3.35;;;1.50;;
56523;SDS011;42422;47.540;18.712;2023-11-21T01:15:45;3.05;;;1.50;;
56523;SDS011;42422;47.540;18.712;2023-11-21T01:18:11;3.25;;;1.55;;
56523;SDS011;42422;47.540;18.712;2023-11-21T01:20:36;3.65;;;1.52;;
56523;SDS011;42422;47.540;18.712;2023-11-21T01:23:01;3.95;;;1.67;;
56523;SDS011;42422;47.540;18.712;2023-11-21T01:25:27;3.60;;;1.67;;
56523;SDS011;42422;47.540;18.712;2023-11-21T01:27:52;4.25;;;1.48;;
56523;SDS011;42422;47.540;18.712;2023-11-21T01:30:17;2.83;;;1.30;;
56523;SDS011;42422;47.540;18.712;2023-11-21T01:32:43;3.28;;;1.83;;
56523;SDS011;42422;47.540;18.712;2023-11-21T01:35:09;3.75;;;1.70;;
56523;SDS011;42422;47.540;18.712;2023-11-21T01:37:35;4.13;;;1.73;;
56523;SDS011;42422;47.540;18.712;2023-11-21T01:40:01;3.88;;;1.42;;
56523;SDS011;42422;47.540;18.712;2023-11-21T01:42:30;2.63;;;1.40;;
56523;SDS011;42422;47.540;18.712;2023-11-21T01:44:55;3.67;;;1.52;;
56523;SDS011;42422;47.540;18.712;2023-11-21T01:47:20;2.95;;;1.58;;
56523;SDS011;42422;47.540;18.712;2023-11-21T01:49:46;3.67;;;1.50;;
56523;SDS011;42422;47.540;18.712;2023-11-21T01:52:12;2.67;;;1.52;;
56523;SDS011;42422;47.540;18.712;2023-11-21T01:54:37;3.53;;;1.65;;
56523;SDS011;42422;47.540;18.712;2023-11-21T01:57:03;2.72;;;1.48;;
56523;SDS011;42422;47.540;18.712;2023-11-21T01:59:34;3.22;;;1.60;;
56523;SDS011;42422;47.540;18.712;2023-11-21T02:02:00;3.67;;;1.45;;
56523;SDS011;42422;47.540;18.712;2023-11-21T02:04:25;3.40;;;1.90;;
56523;SDS011;42422;47.540;18.712;2023-11-21T02:06:50;2.95;;;1.65;;
56523;SDS011;42422;47.540;18.712;2023-11-21T02:09:16;2.95;;;1.70;;
56523;SDS011;42422;47.540;18.712;2023-11-21T02:11:42;3.13;;;1.60;;
56523;SDS011;42422;47.540;18.712;2023-11-21T02:14:09;4.00;;;1.65;;
56523;SDS011;42422;47.540;18.712;2023-11-21T02:16:34;2.90;;;1.63;;
56523;SDS011;42422;47.540;18.712;2023-11-21T02:19:01;3.17;;;1.77;;
56523;SDS011;42422;47.540;18.712;2023-11-21T02:21:26;2.83;;;1.50;;
56523;SDS011;42422;47.540;18.712;2023-11-21T02:23:52;3.47;;;1.80;;
56523;SDS011;42422;47.540;18.712;2023-11-21T02:26:18;2.85;;;1.45;;
56523;SDS011;42422;47.540;18.712;2023-11-21T02:28:43;2.33;;;1.60;;
56523;SDS011;42422;47.540;18.712;2023-11-21T02:31:08;4.25;;;1.85;;
56523;SDS011;42422;47.540;18.712;2023-11-21T02:33:34;3.45;;;1.60;;
56523;SDS011;42422;47.540;18.712;2023-11-21T02:36:00;3.22;;;1.35;;
56523;SDS011;42422;47.540;18.712;2023-11-21T02:38:25;2.63;;;1.25;;
56523;SDS011;42422;47.540;18.712;2023-11-21T02:40:51;2.90;;;1.65;;
56523;SDS011;42422;47.540;18.712;2023-11-21T02:43:16;2.20;;;1.50;;
56523;SDS011;42422;47.540;18.712;2023-11-21T02:45:42;4.53;;;1.77;;
56523;SDS011;42422;47.540;18.712;2023-11-21T02:48:07;1.92;;;1.05;;
56523;SDS011;42422;47.540;18.712;2023-11-21T02:50:32;2.58;;;1.35;;
56523;SDS011;42422;47.540;18.712;2023-11-21T02:52:58;3.33;;;1.55;;
56523;SDS011;42422;47.540;18.712;2023-11-21T02:55:25;2.53;;;1.52;;
56523;SDS011;42422;47.540;18.712;2023-11-21T02:57:51;2.60;;;1.35;;
56523;SDS011;42422;47.540;18.712;2023-11-21T03:00:17;2.75;;;1.67;;
56523;SDS011;42422;47.540;18.712;2023-11-21T03:02:43;3.30;;;1.83;;
56523;SDS011;42422;47.540;18.712;2023-11-21T03:05:08;2.45;;;1.35;;
56523;SDS011;42422;47.540;18.712;2023-11-21T03:07:34;4.00;;;1.40;;
56523;SDS011;42422;47.540;18.712;2023-11-21T03:10:01;3.10;;;1.60;;
56523;SDS011;42422;47.540;18.712;2023-11-21T03:12:26;2.40;;;1.38;;
56523;SDS011;42422;47.540;18.712;2023-11-21T03:14:52;2.47;;;1.20;;
56523;SDS011;42422;47.540;18.712;2023-11-21T03:17:19;3.22;;;1.67;;
56523;SDS011;42422;47.540;18.712;2023-11-21T03:19:44;3.10;;;1.60;;
56523;SDS011;42422;47.540;18.712;2023-11-21T03:22:09;3.35;;;1.50;;
56523;SDS011;42422;47.540;18.712;2023-11-21T03:24:36;2.97;;;1.35;;
56523;SDS011;42422;47.540;18.712;2023-11-21T03:27:02;2.35;;;1.52;;
56523;SDS011;42422;47.540;18.712;2023-11-21T03:29:28;2.90;;;1.40;;
56523;SDS011;42422;47.540;18.712;2023-11-21T03:31:54;2.75;;;1.42;;
56523;SDS011;42422;47.540;18.712;2023-11-21T03:34:26;3.85;;;1.50;;
56523;SDS011;42422;47.540;18.712;2023-11-21T03:36:52;3.65;;;1.60;;
56523;SDS011;42422;47.540;18.712;2023-11-21T03:39:19;2.55;;;1.52;;
56523;SDS011;42422;47.540;18.712;2023-11-21T03:41:45;2.38;;;1.50;;
56523;SDS011;42422;47.540;18.712;2023-11-21T03:44:10;3.20;;;1.52;;
56523;SDS011;42422;47.540;18.712;2023-11-21T03:46:35;2.70;;;1.77;;
56523;SDS011;42422;47.540;18.712;2023-11-21T03:49:01;2.47;;;1.52;;
56523;SDS011;42422;47.540;18.712;2023-11-21T03:51:26;2.97;;;1.85;;
56523;SDS011;42422;47.540;18.712;2023-11-21T03:53:51;3.25;;;1.95;;
56523;SDS011;42422;47.540;18.712;2023-11-21T03:56:17;4.55;;;1.85;;
56523;SDS011;42422;47.540;18.712;2023-11-21T03:58:42;2.50;;;1.75;;
56523;SDS011;42422;47.540;18.712;2023-11-21T04:01:07;3.75;;;1.70;;
56523;SDS011;42422;47.540;18.712;2023-11-21T04:03:32;2.67;;;1.60;;
56523;SDS011;42422;47.540;18.712;2023-11-21T04:05:58;4.15;;;1.80;;
56523;SDS011;42422;47.540;18.712;2023-11-21T04:08:23;3.65;;;1.60;;
56523;SDS011;42422;47.540;18.712;2023-11-21T04:10:48;3.90;;;1.85;;
56523;SDS011;42422;47.540;18.712;2023-11-21T04:13:14;4.53;;;1.73;;
56523;SDS011;42422;47.540;18.712;2023-11-21T04:15:39;2.72;;;1.92;;
56523;SDS011;42422;47.540;18.712;2023-11-21T04:18:04;3.28;;;1.95;;
56523;SDS011;42422;47.540;18.712;2023-11-21T04:20:30;3.85;;;1.70;;
56523;SDS011;42422;47.540;18.712;2023-11-21T04:22:55;2.55;;;1.63;;
56523;SDS011;42422;47.540;18.712;2023-11-21T04:25:20;3.33;;;1.60;;
56523;SDS011;42422;47.540;18.712;2023-11-21T04:27:48;4.45;;;1.60;;
56523;SDS011;42422;47.540;18.712;2023-11-21T04:30:14;2.58;;;1.35;;
56523;SDS011;42422;47.540;18.712;2023-11-21T04:32:39;2.58;;;1.60;;
56523;SDS011;42422;47.540;18.712;2023-11-21T04:35:05;2.58;;;1.48;;
56523;SDS011;42422;47.540;18.712;2023-11-21T04:37:31;2.97;;;1.92;;
56523;SDS011;42422;47.540;18.712;2023-11-21T04:39:56;4.57;;;1.70;;
56523;SDS011;42422;47.540;18.712;2023-11-21T04:42:21;2.90;;;1.77;;
56523;SDS011;42422;47.540;18.712;2023-11-21T04:44:47;2.72;;;1.50;;
56523;SDS011;42422;47.540;18.712;2023-11-21T04:47:13;4.13;;;1.85;;
56523;SDS011;42422;47.540;18.712;2023-11-21T04:49:41;3.35;;;1.60;;
56523;SDS011;42422;47.540;18.712;2023-11-21T04:52:07;3.08;;;1.60;;
56523;SDS011;42422;47.540;18.712;2023-11-21T04:54:34;3.30;;;1.70;;
56523;SDS011;42422;47.540;18.712;2023-11-21T04:57:00;3.20;;;1.88;;
56523;SDS011;42422;47.540;18.712;2023-11-21T04:59:25;3.72;;;1.63;;
56523;SDS011;42422;47.540;18.712;2023-11-21T05:01:52;3.25;;;1.60;;
56523;SDS011;42422;47.540;18.712;2023-11-21T05:04:18;3.00;;;1.50;;
56523;SDS011;42422;47.540;18.712;2023-11-21T05:06:44;2.45;;;1.50;;
56523;SDS011;42422;47.540;18.712;2023-11-21T05:09:09;2.75;;;1.33;;
56523;SDS011;42422;47.540;18.712;2023-11-21T05:11:37;2.05;;;1.38;;
56523;SDS011;42422;47.540;18.712;2023-11-21T05:14:03;10.77;;;1.80;;
56523;SDS011;42422;47.540;18.712;2023-11-21T05:16:29;3.22;;;1.25;;
56523;SDS011;42422;47.540;18.712;2023-11-21T05:18:54;2.65;;;1.50;;
56523;SDS011;42422;47.540;18.712;2023-11-21T05:21:25;3.22;;;1.70;;
56523;SDS011;42422;47.540;18.712;2023-11-21T05:23:50;2.80;;;1.63;;
56523;SDS011;42422;47.540;18.712;2023-11-21T05:26:16;2.95;;;1.58;;
56523;SDS011;42422;47.540;18.712;2023-11-21T05:28:41;2.53;;;1.40;;
56523;SDS011;42422;47.540;18.712;2023-11-21T05:31:06;2.80;;;1.60;;
56523;SDS011;42422;47.540;18.712;2023-11-21T05:33:32;7.63;;;1.80;;
56523;SDS011;42422;47.540;18.712;2023-11-21T05:35:58;3.38;;;1.70;;
56523;SDS011;42422;47.540;18.712;2023-11-21T05:38:23;3.13;;;1.48;;
56523;SDS011;42422;47.540;18.712;2023-11-21T05:40:49;4.03;;;1.52;;
56523;SDS011;42422;47.540;18.712;2023-11-21T05:43:14;2.30;;;1.33;;
56523;SDS011;42422;47.540;18.712;2023-11-21T05:45:40;2.80;;;1.40;;
56523;SDS011;42422;47.540;18.712;2023-11-21T05:48:05;2.20;;;1.45;;
56523;SDS011;42422;47.540;18.712;2023-11-21T05:50:31;2.95;;;1.50;;
56523;SDS011;42422;47.540;18.712;2023-11-21T05:52:57;5.82;;;1.75;;
56523;SDS011;42422;47.540;18.712;2023-11-21T05:55:24;2.97;;;1.60;;
56523;SDS011;42422;47.540;18.712;2023-11-21T05:57:50;3.38;;;1.35;;
56523;SDS011;42422;47.540;18.712;2023-11-21T06:00:16;4.63;;;1.45;;
56523;SDS011;42422;47.540;18.712;2023-11-21T06:02:50;6.72;;;1.73;;
56523;SDS011;42422;47.540;18.712;2023-11-21T06:05:18;3.58;;;1.40;;
56523;SDS011;42422;47.540;18.712;2023-11-21T06:07:44;2.35;;;1.25;;
56523;SDS011;42422;47.540;18.712;2023-11-21T06:10:10;5.05;;;1.42;;
56523;SDS011;42422;47.540;18.712;2023-11-21T06:12:37;4.65;;;1.88;;
56523;SDS011;42422;47.540;18.712;2023-11-21T06:15:03;26.63;;;9.57;;
56523;SDS011;42422;47.540;18.712;2023-11-21T06:17:30;309.30;;;180.38;;
56523;SDS011;42422;47.540;18.712;2023-11-21T06:19:56;244.90;;;126.18;;
56523;SDS011;42422;47.540;18.712;2023-11-21T06:22:21;260.70;;;129.57;;
56523;SDS011;42422;47.540;18.712;2023-11-21T06:24:46;156.02;;;79.22;;
56523;SDS011;42422;47.540;18.712;2023-11-21T06:27:12;150.05;;;83.07;;
56523;SDS011;42422;47.540;18.712;2023-11-21T06:29:37;156.82;;;83.20;;
56523;SDS011;42422;47.540;18.712;2023-11-21T06:32:03;124.38;;;66.60;;
56523;SDS011;42422;47.540;18.712;2023-11-21T06:34:30;80.72;;;45.13;;
56523;SDS011;42422;47.540;18.712;2023-11-21T06:36:55;61.80;;;35.97;;
56523;SDS011;42422;47.540;18.712;2023-11-21T06:39:21;48.97;;;30.02;;
56523;SDS011;42422;47.540;18.712;2023-11-21T06:41:48;41.85;;;24.35;;
56523;SDS011;42422;47.540;18.712;2023-11-21T06:44:16;38.67;;;21.75;;
56523;SDS011;42422;47.540;18.712;2023-11-21T06:46:41;37.20;;;20.10;;
56523;SDS011;42422;47.540;18.712;2023-11-21T06:49:07;32.55;;;18.17;;
56523;SDS011;42422;47.540;18.712;2023-11-21T06:51:33;31.25;;;17.38;;
56523;SDS011;42422;47.540;18.712;2023-11-21T06:53:58;24.95;;;14.38;;
56523;SDS011;42422;47.540;18.712;2023-11-21T06:56:24;23.05;;;13.60;;
56523;SDS011;42422;47.540;18.712;2023-11-21T06:58:49;20.10;;;11.93;;
56523;SDS011;42422;47.540;18.712;2023-11-21T07:01:14;19.30;;;11.25;;
56523;SDS011;42422;47.540;18.712;2023-11-21T07:03:40;20.88;;;10.10;;
56523;SDS011;42422;47.540;18.712;2023-11-21T07:06:06;18.65;;;10.50;;
56523;SDS011;42422;47.540;18.712;2023-11-21T07:08:32;18.60;;;9.90;;
56523;SDS011;42422;47.540;18.712;2023-11-21T07:10:58;17.27;;;8.70;;
56523;SDS011;42422;47.540;18.712;2023-11-21T07:13:23;15.27;;;8.52;;
56523;SDS011;42422;47.540;18.712;2023-11-21T07:15:48;14.85;;;8.10;;
56523;SDS011;42422;47.540;18.712;2023-11-21T07:18:14;16.88;;;7.60;;
56523;SDS011;42422;47.540;18.712;2023-11-21T07:20:39;14.90;;;7.65;;
56523;SDS011;42422;47.540;18.712;2023-11-21T07:23:05;11.70;;;6.93;;
56523;SDS011;42422;47.540;18.712;2023-11-21T07:25:31;13.40;;;7.00;;
56523;SDS011;42422;47.540;18.712;2023-11-21T07:27:57;12.98;;;6.78;;
56523;SDS011;42422;47.540;18.712;2023-11-21T07:33:04;12.55;;;6.50;;
56523;SDS011;42422;47.540;18.712;2023-11-21T07:35:29;15.23;;;7.03;;
56523;SDS011;42422;47.540;18.712;2023-11-21T07:37:54;12.25;;;6.78;;
56523;SDS011;42422;47.540;18.712;2023-11-21T07:40:19;12.60;;;6.53;;
56523;SDS011;42422;47.540;18.712;2023-11-21T07:42:45;15.13;;;7.20;;
56523;SDS011;42422;47.540;18.712;2023-11-21T07:45:10;17.33;;;6.93;;
56523;SDS011;42422;47.540;18.712;2023-11-21T07:47:36;21.02;;;7.93;;
56523;SDS011;42422;47.540;18.712;2023-11-21T07:50:03;18.67;;;7.63;;
56523;SDS011;42422;47.540;18.712;2023-11-21T07:52:28;10.45;;;5.82;;
56523;SDS011;42422;47.540;18.712;2023-11-21T07:54:54;12.25;;;6.35;;
56523;SDS011;42422;47.540;18.712;2023-11-21T07:57:19;14.63;;;5.93;;
56523;SDS011;42422;47.540;18.712;2023-11-21T07:59:44;12.00;;;6.10;;
56523;SDS011;42422;47.540;18.712;2023-11-21T08:02:10;16.20;;;5.97;;
56523;SDS011;42422;47.540;18.712;2023-11-21T08:04:35;15.88;;;6.43;;
56523;SDS011;42422;47.540;18.712;2023-11-21T08:07:01;12.88;;;6.22;;
56523;SDS011;42422;47.540;18.712;2023-11-21T08:09:26;14.43;;;6.38;;
56523;SDS011;42422;47.540;18.712;2023-11-21T08:11:52;14.48;;;6.10;;
56523;SDS011;42422;47.540;18.712;2023-11-21T08:14:18;11.60;;;5.28;;
56523;SDS011;42422;47.540;18.712;2023-11-21T08:16:43;12.57;;;6.97;;
56523;SDS011;42422;47.540;18.712;2023-11-21T08:19:09;12.90;;;5.95;;
56523;SDS011;42422;47.540;18.712;2023-11-21T08:21:36;9.70;;;5.53;;
56523;SDS011;42422;47.540;18.712;2023-11-21T08:24:02;12.05;;;5.90;;
56523;SDS011;42422;47.540;18.712;2023-11-21T08:26:29;11.00;;;5.80;;
56523;SDS011;42422;47.540;18.712;2023-11-21T08:28:54;12.68;;;5.30;;
56523;SDS011;42422;47.540;18.712;2023-11-21T08:31:27;9.65;;;5.50;;
56523;SDS011;42422;47.540;18.712;2023-11-21T08:33:52;9.48;;;5.05;;
56523;SDS011;42422;47.540;18.712;2023-11-21T08:36:21;12.70;;;5.85;;
56523;SDS011;42422;47.540;18.712;2023-11-21T08:38:49;10.52;;;5.25;;
56523;SDS011;42422;47.540;18.712;2023-11-21T08:41:14;13.90;;;6.10;;
56523;SDS011;42422;47.540;18.712;2023-11-21T08:43:41;11.80;;;5.75;;
56523;SDS011;42422;47.540;18.712;2023-11-21T08:46:07;11.93;;;5.25;;
56523;SDS011;42422;47.540;18.712;2023-11-21T08:48:34;9.13;;;4.93;;
56523;SDS011;42422;47.540;18.712;2023-11-21T08:51:01;12.10;;;5.00;;
56523;SDS011;42422;47.540;18.712;2023-11-21T08:53:26;11.75;;;4.78;;
56523;SDS011;42422;47.540;18.712;2023-11-21T08:55:51;8.57;;;4.90;;
56523;SDS011;42422;47.540;18.712;2023-11-21T08:58:18;11.68;;;4.85;;
56523;SDS011;42422;47.540;18.712;2023-11-21T09:00:44;11.02;;;5.78;;
56523;SDS011;42422;47.540;18.712;2023-11-21T09:03:11;11.02;;;5.38;;
56523;SDS011;42422;47.540;18.712;2023-11-21T09:05:39;10.48;;;4.90;;
56523;SDS011;42422;47.540;18.712;2023-11-21T09:08:05;12.15;;;4.65;;
56523;SDS011;42422;47.540;18.712;2023-11-21T09:10:31;9.07;;;4.93;;
56523;SDS011;42422;47.540;18.712;2023-11-21T09:13:00;8.57;;;4.38;;
56523;SDS011;42422;47.540;18.712;2023-11-21T09:15:25;8.73;;;4.07;;
56523;SDS011;42422;47.540;18.712;2023-11-21T09:17:51;12.15;;;4.55;;
56523;SDS011;42422;47.540;18.712;2023-11-21T09:20:16;14.38;;;4.25;;
56523;SDS011;42422;47.540;18.712;2023-11-21T09:22:42;8.45;;;4.30;;
56523;SDS011;42422;47.540;18.712;2023-11-21T09:25:09;8.32;;;4.18;;
56523;SDS011;42422;47.540;18.712;2023-11-21T09:27:35;9.45;;;4.22;;
56523;SDS011;42422;47.540;18.712;2023-11-21T09:30:03;11.05;;;5.00;;
56523;SDS011;42422;47.540;18.712;2023-11-21T09:32:30;10.43;;;4.60;;
56523;SDS011;42422;47.540;18.712;2023-11-21T09:34:56;8.25;;;4.10;;
56523;SDS011;42422;47.540;18.712;2023-11-21T09:37:23;10.48;;;4.70;;
56523;SDS011;42422;47.540;18.712;2023-11-21T09:39:49;5.68;;;3.92;;
56523;SDS011;42422;47.540;18.712;2023-11-21T09:43:16;7.18;;;4.38;;
56523;SDS011;42422;47.540;18.712;2023-11-21T09:45:29;9.13;;;4.15;;
56523;SDS011;42422;47.540;18.712;2023-11-21T09:47:59;8.20;;;4.40;;
56523;SDS011;42422;47.540;18.712;2023-11-21T09:50:24;10.55;;;4.35;;
56523;SDS011;42422;47.540;18.712;2023-11-21T09:52:58;9.60;;;4.95;;
56523;SDS011;42422;47.540;18.712;2023-11-21T09:55:46;6.85;;;3.90;;
56523;SDS011;42422;47.540;18.712;2023-11-21T09:58:13;8.75;;;4.28;;
56523;SDS011;42422;47.540;18.712;2023-11-21T10:00:48;8.43;;;4.60;;
56523;SDS011;42422;47.540;18.712;2023-11-21T10:03:14;8.00;;;4.60;;
56523;SDS011;42422;47.540;18.712;2023-11-21T10:05:41;6.95;;;4.50;;
56523;SDS011;42422;47.540;18.712;2023-11-21T10:08:08;9.00;;;4.47;;
56523;SDS011;42422;47.540;18.712;2023-11-21T10:10:38;10.63;;;4.15;;
56523;SDS011;42422;47.540;18.712;2023-11-21T10:13:13;7.13;;;4.07;;
56523;SDS011;42422;47.540;18.712;2023-11-21T10:15:41;10.10;;;4.45;;
56523;SDS011;42422;47.540;18.712;2023-11-21T10:18:12;10.98;;;4.60;;
56523;SDS011;42422;47.540;18.712;2023-11-21T10:20:40;10.68;;;4.38;;
56523;SDS011;42422;47.540;18.712;2023-11-21T10:23:05;12.48;;;5.32;;
56523;SDS011;42422;47.540;18.712;2023-11-21T10:25:32;10.70;;;4.28;;
56523;SDS011;42422;47.540;18.712;2023-11-21T10:27:58;8.88;;;4.45;;
56523;SDS011;42422;47.540;18.712;2023-11-21T10:30:45;9.57;;;4.55;;
56523;SDS011;42422;47.540;18.712;2023-11-21T10:33:10;12.35;;;5.25;;
56523;SDS011;42422;47.540;18.712;2023-11-21T10:35:42;11.20;;;4.43;;
56523;SDS011;42422;47.540;18.712;2023-11-21T10:38:20;11.77;;;5.30;;
56523;SDS011;42422;47.540;18.712;2023-11-21T10:40:48;8.80;;;4.63;;
56523;SDS011;42422;47.540;18.712;2023-11-21T10:43:14;9.85;;;4.53;;
56523;SDS011;42422;47.540;18.712;2023-11-21T10:45:40;9.35;;;5.28;;
56523;SDS011;42422;47.540;18.712;2023-11-21T10:48:07;8.77;;;6.22;;
56523;SDS011;42422;47.540;18.712;2023-11-21T10:50:35;8.27;;;4.90;;
56523;SDS011;42422;47.540;18.712;2023-11-21T10:53:02;8.57;;;5.15;;
56523;SDS011;42422;47.540;18.712;2023-11-21T10:55:29;8.18;;;4.18;;
56523;SDS011;42422;47.540;18.712;2023-11-21T10:57:55;10.18;;;5.03;;
56523;SDS011;42422;47.540;18.712;2023-11-21T11:00:23;10.07;;;5.10;;
56523;SDS011;42422;47.540;18.712;2023-11-21T11:02:50;11.68;;;5.20;;
56523;SDS011;42422;47.540;18.712;2023-11-21T11:05:19;9.40;;;4.40;;
56523;SDS011;42422;47.540;18.712;2023-11-21T11:07:45;7.55;;;4.53;;
56523;SDS011;42422;47.540;18.712;2023-11-21T11:10:13;8.43;;;4.45;;
56523;SDS011;42422;47.540;18.712;2023-11-21T11:12:41;9.73;;;5.13;;
56523;SDS011;42422;47.540;18.712;2023-11-21T11:15:07;7.63;;;4.40;;
56523;SDS011;42422;47.540;18.712;2023-11-21T11:17:35;8.23;;;4.68;;
56523;SDS011;42422;47.540;18.712;2023-11-21T11:20:03;10.35;;;5.30;;
56523;SDS011;42422;47.540;18.712;2023-11-21T11:36:28;9.07;;;4.63;;
56523;SDS011;42422;47.540;18.712;2023-11-21T11:38:56;8.30;;;5.03;;
56523;SDS011;42422;47.540;18.712;2023-11-21T11:41:25;13.80;;;5.03;;
56523;SDS011;42422;47.540;18.712;2023-11-21T11:43:52;8.52;;;4.20;;
56523;SDS011;42422;47.540;18.712;2023-11-21T11:46:18;7.72;;;4.82;;
56523;SDS011;42422;47.540;18.712;2023-11-21T11:48:46;6.05;;;4.97;;
56523;SDS011;42422;47.540;18.712;2023-11-21T11:51:12;7.10;;;4.07;;
56523;SDS011;42422;47.540;18.712;2023-11-21T11:53:46;8.13;;;4.93;;
56523;SDS011;42422;47.540;18.712;2023-11-21T11:56:28;13.25;;;4.55;;
56523;SDS011;42422;47.540;18.712;2023-11-21T12:01:27;8.48;;;3.95;;
56523;SDS011;42422;47.540;18.712;2023-11-21T12:09:06;8.43;;;4.60;;
56523;SDS011;42422;47.540;18.712;2023-11-21T12:11:31;10.13;;;4.70;;
56523;SDS011;42422;47.540;18.712;2023-11-21T12:13:57;9.57;;;4.63;;
56523;SDS011;42422;47.540;18.712;2023-11-21T12:16:24;6.88;;;4.15;;
56523;SDS011;42422;47.540;18.712;2023-11-21T12:18:52;7.70;;;4.63;;
56523;SDS011;42422;47.540;18.712;2023-11-21T12:21:18;10.18;;;4.43;;
56523;SDS011;42422;47.540;18.712;2023-11-21T12:23:44;7.28;;;4.03;;
56523;SDS011;42422;47.540;18.712;2023-11-21T12:26:12;7.70;;;4.15;;
56523;SDS011;42422;47.540;18.712;2023-11-21T12:28:38;8.85;;;4.45;;
56523;SDS011;42422;47.540;18.712;2023-11-21T12:31:03;8.70;;;4.68;;
56523;SDS011;42422;47.540;18.712;2023-11-21T12:33:31;7.15;;;4.05;;
56523;SDS011;42422;47.540;18.712;2023-11-21T12:35:57;6.65;;;4.10;;
56523;SDS011;42422;47.540;18.712;2023-11-21T12:38:23;8.40;;;4.78;;
56523;SDS011;42422;47.540;18.712;2023-11-21T12:40:49;9.20;;;4.32;;
56523;SDS011;42422;47.540;18.712;2023-11-21T12:43:15;10.88;;;5.53;;
56523;SDS011;42422;47.540;18.712;2023-11-21T12:45:43;8.13;;;4.30;;
56523;SDS011;42422;47.540;18.712;2023-11-21T12:48:08;10.80;;;4.80;;
56523;SDS011;42422;47.540;18.712;2023-11-21T12:50:36;7.40;;;4.60;;
56523;SDS011;42422;47.540;18.712;2023-11-21T12:53:06;8.55;;;4.40;;
56523;SDS011;42422;47.540;18.712;2023-11-21T12:55:33;7.70;;;4.47;;
56523;SDS011;42422;47.540;18.712;2023-11-21T12:58:02;7.32;;;4.13;;
56523;SDS011;42422;47.540;18.712;2023-11-21T13:00:37;12.25;;;4.63;;
56523;SDS011;42422;47.540;18.712;2023-11-21T13:03:08;8.57;;;4.45;;
56523;SDS011;42422;47.540;18.712;2023-11-21T13:05:37;5.78;;;3.97;;
56523;SDS011;42422;47.540;18.712;2023-11-21T13:08:04;11.70;;;5.15;;
56523;SDS011;42422;47.540;18.712;2023-11-21T13:10:38;8.82;;;5.13;;
56523;SDS011;42422;47.540;18.712;2023-11-21T13:13:05;11.88;;;5.07;;
56523;SDS011;42422;47.540;18.712;2023-11-21T13:15:33;5.82;;;4.28;;
56523;SDS011;42422;47.540;18.712;2023-11-21T13:18:01;5.55;;;3.55;;
56523;SDS011;42422;47.540;18.712;2023-11-21T13:20:27;7.80;;;4.07;;
56523;SDS011;42422;47.540;18.712;2023-11-21T13:22:53;7.03;;;3.78;;
56523;SDS011;42422;47.540;18.712;2023-11-21T13:25:22;7.65;;;4.03;;
56523;SDS011;42422;47.540;18.712;2023-11-21T13:27:48;8.07;;;3.92;;
56523;SDS011;42422;47.540;18.712;2023-11-21T13:30:14;6.25;;;4.05;;
56523;SDS011;42422;47.540;18.712;2023-11-21T13:32:48;6.82;;;3.90;;
56523;SDS011;42422;47.540;18.712;2023-11-21T13:35:16;6.82;;;4.28;;
56523;SDS011;42422;47.540;18.712;2023-11-21T13:38:05;14.68;;;4.43;;
56523;SDS011;42422;47.540;18.712;2023-11-21T13:40:38;8.93;;;4.82;;
56523;SDS011;42422;47.540;18.712;2023-11-21T13:43:14;8.35;;;3.92;;
56523;SDS011;42422;47.540;18.712;2023-11-21T13:45:41;7.88;;;4.32;;
56523;SDS011;42422;47.540;18.712;2023-11-21T13:48:08;8.50;;;4.18;;
56523;SDS011;42422;47.540;18.712;2023-11-21T13:50:42;6.32;;;3.47;;
56523;SDS011;42422;47.540;18.712;2023-11-21T13:53:34;7.65;;;3.80;;
56523;SDS011;42422;47.540;18.712;2023-11-21T13:56:02;6.65;;;3.88;;
56523;SDS011;42422;47.540;18.712;2023-11-21T13:58:28;7.88;;;4.00;;
56523;SDS011;42422;47.540;18.712;2023-11-21T14:01:16;7.75;;;3.85;;
56523;SDS011;42422;47.540;18.712;2023-11-21T14:04:12;8.98;;;3.80;;
56523;SDS011;42422;47.540;18.712;2023-11-21T14:06:50;5.32;;;3.58;;
56523;SDS011;42422;47.540;18.712;2023-11-21T14:09:20;7.10;;;4.20;;
56523;SDS011;42422;47.540;18.712;2023-11-21T14:11:58;98.95;;;44.13;;
56523;SDS011;42422;47.540;18.712;2023-11-21T14:14:26;43.65;;;24.40;;
56523;SDS011;42422;47.540;18.712;2023-11-21T14:16:55;29.52;;;18.15;;
56523;SDS011;42422;47.540;18.712;2023-11-21T14:19:21;20.92;;;12.07;;
56523;SDS011;42422;47.540;18.712;2023-11-21T14:21:47;21.58;;;10.00;;
56523;SDS011;42422;47.540;18.712;2023-11-21T14:24:13;13.25;;;7.88;;
56523;SDS011;42422;47.540;18.712;2023-11-21T14:26:40;11.82;;;6.25;;
56523;SDS011;42422;47.540;18.712;2023-11-21T14:29:07;406.13;;;259.08;;
56523;SDS011;42422;47.540;18.712;2023-11-21T14:31:33;135.80;;;92.35;;
56523;SDS011;42422;47.540;18.712;2023-11-21T14:33:59;75.78;;;51.78;;
56523;SDS011;42422;47.540;18.712;2023-11-21T14:36:26;102.38;;;71.80;;
56523;SDS011;42422;47.540;18.712;2023-11-21T14:38:52;101.20;;;69.40;;
56523;SDS011;42422;47.540;18.712;2023-11-21T14:41:18;512.55;;;240.52;;
56523;SDS011;42422;47.540;18.712;2023-11-21T14:43:44;396.50;;;234.85;;
56523;SDS011;42422;47.540;18.712;2023-11-21T14:46:10;338.02;;;198.77;;
56523;SDS011;42422;47.540;18.712;2023-11-21T14:48:41;185.93;;;106.55;;
56523;SDS011;42422;47.540;18.712;2023-11-21T14:51:12;95.30;;;53.47;;